x

Neah Bay, - 6nm North Of Cape Flattery, Wa (traffic Separation Lighted Buoy) (46087) Weather Station

11:20am - Sat 31st Jan 2015 All times are PST. -8 hours from GMT.

  • Wind
    22mph, 27mph gusts
  • Sea Temp 49°f
  • Air Temp 45°f
  • Sea Pressure 1022.7mb
  • Neah Bay, - 6nm North Of Cape Flattery, Wa     (traffic Separation Lighted Buoy)
  • Neah Bay, - 6nm North Of Cape Flattery, Wa     (traffic Separation Lighted Buoy)

More Historic Weather Station data

Upgrade to MSW Pro to gain access to the past 30 days of data for over 8000 Wavebouys and Weather Stations around the globe.

Join Pro

Comparision Forecast

View Surf forecast
   
Sat 01/31 11:20am  -   -   -  22 27 mph 1022.7mb 49f 45f
10:50am 5.5ft 11s 7s 22 27 mph 1022.7mb 49f 45f
10:20am  -   -   -  20 25 mph 1023.3mb 49f 45f
9:50am 6ft 14s 7s 20 27 mph 1023mb 49f 45f
9:20am  -   -   -  20 22 mph 1023.4mb 49f 45f
8:50am 6ft 9s 7s 18 25 mph 1023.3mb 50f 44f
8:20am  -   -   -  20 25 mph 1023.3mb 50f 45f
7:50am 6ft 13s 7s 22 27 mph 1023.5mb 50f 45f
7:20am  -   -   -  20 27 mph 1023.4mb 50f 45f
6:50am 5.5ft 14s 7s 20 25 mph 1023.4mb 50f 46f
6:20am  -   -   -  20 27 mph 1023.5mb 50f 46f
5:50am 6ft 13s 7s 20 27 mph 1023mb 50f 46f
5:20am  -   -   -  18 25 mph 1023mb 50f 46f
4:50am 5.5ft 10s 8s 16 18 mph 1023.6mb 50f 46f
4:20am  -   -   -  13 18 mph 1024mb 50f 46f
3:50am 5ft 13s 8s 13 16 mph 1023.7mb 50f 47f
3:20am  -   -   -  11 16 mph 1023.8mb 50f 47f
2:50am 5.5ft 9s 9s 13 16 mph 1024.1mb 49f 47f
2:20am  -   -   -  11 13 mph 1024.1mb 49f 47f
1:50am 6ft 13s 9s 13 16 mph 1024.2mb 49f 47f
1:20am  -   -   -  13 16 mph 1024.2mb 49f 47f
12:50am 5ft 10s 9s 11 16 mph 1024.3mb 49f 46f
12:20am  -   -   -  7 9 mph 1024.3mb 49f 46f
Fri 01/30 11:50pm 5.5ft 14s 8s 7 9 mph 1024.4mb 50f 47f
11:20pm  -   -   -  4 7 mph 1024.2mb 49f 47f
10:50pm 5ft 13s 9s 4 7 mph 1024.2mb 49f 47f
10:20pm  -   -   -  2 4 mph 1024.4mb 49f 47f
9:50pm 5ft 13s 8s 4 7 mph 1024.6mb 49f 47f
9:20pm  -   -   -  4 7 mph 1024.5mb 49f 48f
8:50pm 5ft 14s 8s 4 7 mph 1024.6mb 49f 48f
8:20pm  -   -   -  9 13 mph 1024.6mb 49f 48f
7:50pm 5ft 15s 8s 9 13 mph 1024.8mb 49f 48f
7:20pm  -   -   -  9 11 mph 1025mb 49f 49f
6:50pm 5.5ft 10s 9s 11 13 mph 1025.3mb 49f 49f
6:20pm  -   -   -  9 11 mph 1025.4mb 50f 49f
5:50pm 5.5ft 13s 9s 11 13 mph 1025.4mb 50f 49f
5:20pm  -   -   -  7 9 mph 1025.3mb 50f 49f
4:50pm 5ft 15s 9s 7
mph
1025.3mb 50f 48f
4:20pm  -   -   -  7
mph
1025.3mb 50f 48f
3:50pm 5.5ft 10s 9s 4 7 mph 1025.3mb 50f 48f
3:20pm  -   -   -  2
mph
1025.5mb 50f 48f
2:50pm 5.5ft 10s 9s 4
mph
1025.3mb 50f 47f
2:20pm  -   -   -  2 4 mph 1025.6mb 50f 48f
1:50pm 5.5ft 10s 9s 2 4 mph 1026.1mb 50f 48f
1:20pm  -   -   -  4 7 mph 1025.9mb 50f 47f
12:50pm 6ft 10s 9s 7 9 mph 1025.9mb 50f 47f
12:20pm  -   -   -  9 11 mph 1026mb 50f 47f
11:50am 6ft 9s 9s 11 13 mph 1026.3mb 50f 47f
11:20am  -   -   -  11 13 mph 1026.5mb 50f 47f
10:50am 6ft 10s 9s 11 13 mph 1026.6mb 50f 47f
10:20am  -   -   -  11 13 mph 1026.6mb 50f 46f
9:50am 6ft 10s 9s 11 13 mph 1026.3mb 50f 46f
9:20am  -   -   -  11 13 mph 1026.2mb 50f 46f
8:50am 6ft 12s 9s 11 16 mph 1026.2mb 50f 46f
8:20am  -   -   -  13 16 mph 1026.1mb 50f 46f
7:50am 6ft 11s 9s 13 16 mph 1026.3mb 50f 46f
7:20am  -   -   -  13 16 mph 1026.1mb 50f 46f
6:50am 5.5ft 10s 8s 16 18 mph 1025.9mb 50f 46f
6:20am  -   -   -  13 16 mph 1026.1mb 50f 46f
5:50am 6ft 10s 8s 16 20 mph 1025.8mb 50f 46f
5:20am  -   -   -  16 20 mph 1025.8mb 50f 46f
4:50am 6ft 11s 8s 16 18 mph 1026.2mb 50f 47f
4:20am  -   -   -  16 18 mph 1026.2mb 50f 47f
3:50am 6.5ft 10s 8s 16 20 mph 1026.1mb 50f 47f
3:20am  -   -   -  16 20 mph 1026.2mb 50f 47f
2:50am 6.5ft 11s 8s 16 20 mph 1026.4mb 50f 47f
2:20am  -   -   -  16 18 mph 1026.4mb 50f 47f
1:50am 6ft 9s 9s 16 20 mph 1026.5mb 50f 46f
1:20am  -   -   -  16 18 mph 1026.4mb 50f 47f
12:50am 6ft 11s 9s 13 18 mph 1026.5mb 50f 47f
12:20am  -   -   -  16 20 mph 1026.3mb 50f 47f
Thu 01/29 11:50pm 6ft 11s 9s 13 16 mph 1026.7mb 50f 47f
11:20pm  -   -   -  13 18 mph 1026.5mb 50f 47f
10:50pm 5.5ft 10s 8s 16 20 mph 1026.3mb 50f 47f
10:20pm  -   -   -  16 18 mph 1026.4mb 50f 47f
9:50pm 6.5ft 9s 8s 16 18 mph 1026.3mb 50f 47f
9:20pm  -   -   -  16 20 mph 1026mb 50f 48f
8:50pm 6ft 10s 8s 18 20 mph 1025.9mb 49f 48f
8:20pm  -   -   -  16 20 mph 1025.9mb 49f 48f
7:50pm 6ft 11s 8s 16 20 mph 1026.2mb 49f 48f
7:20pm  -   -   -  13 18 mph 1026.4mb 49f 48f
6:50pm 5.5ft 11s 8s 16 18 mph 1026.2mb 49f 48f
6:20pm  -   -   -  16 20 mph 1026mb 49f 48f
5:50pm 5.5ft 11s 8s 16 20 mph 1026mb 49f 48f
5:20pm  -   -   -  18 22 mph 1025.9mb 49f 48f
4:50pm 5.5ft 11s 7s 20 25 mph 1025.8mb 49f 48f
4:20pm  -   -   -  18 20 mph 1026.2mb 49f 48f
3:50pm 5ft 11s 7s 18 22 mph 1026.2mb 49f 48f
3:20pm  -   -   -  18 22 mph 1026.4mb 50f 48f
2:50pm 5ft 16s 7s 18 22 mph 1026.4mb 50f 48f
2:20pm  -   -   -  18 22 mph 1026.4mb 50f 48f
1:50pm 5ft 11s  -  20 25 mph 1026.5mb 50f 48f
1:20pm  -   -   -  20 22 mph 1026.7mb 50f 47f
12:50pm 5ft 11s 6s 20 25 mph 1027.1mb 50f 47f
12:20pm  -   -   -  20 25 mph 1027.3mb 50f 47f
11:50am 4.5ft 11s 6s 22 25 mph 1027.4mb 50f 47f
11:20am  -   -   -  20 25 mph 1027.8mb 50f 48f
10:50am 4.5ft 11s 7s 20 25 mph 1027.8mb 50f 47f
10:20am  -   -   -  18 22 mph 1028mb 50f 48f
9:50am 4.5ft 10s 6s 18 20 mph 1028.3mb 50f 48f
9:20am  -   -   -  16 18 mph 1028.3mb 50f 48f
8:50am 5ft 11s 6s 18 22 mph 1027.7mb 50f 48f
8:20am  -   -   -  20 25 mph 1027.3mb 50f 47f
7:50am 4.5ft 11s 6s 20 25 mph 1027.3mb 50f 47f
7:20am  -   -   -  25 29 mph 1026.7mb 50f 47f
6:50am 4.5ft 11s 6s 22 25 mph 1026.7mb 50f 48f
6:20am  -   -   -  20 25 mph 1026.9mb 50f 48f
5:50am 3.5ft 13s 6s 20 25 mph 1026.9mb 50f 47f
5:20am  -   -   -  18 22 mph 1027.4mb 50f 48f
4:50am 3.5ft 12s 5s 18 22 mph 1027.4mb 50f 47f
4:20am  -   -   -  18 20 mph 1027.5mb 50f 47f
3:50am 3.5ft 11s 5s 18 22 mph 1027.7mb 50f 47f
3:20am  -   -   -  16 20 mph 1028.1mb 50f 47f
2:50am 3.5ft 11s 6s 16 20 mph 1028.1mb 50f 47f
2:20am  -   -   -  16 18 mph 1028.3mb 50f 47f
1:50am 3ft 11s 6s 18 20 mph 1028.2mb 50f 47f
1:20am  -   -   -  16 18 mph 1028.3mb 50f 47f
12:50am 3.5ft 11s 6s 16 20 mph 1028.2mb 50f 47f
12:20am  -   -   -  18 20 mph 1028mb 50f 47f
Wed 01/28 11:50pm 3.5ft 11s 7s 18 20 mph 1028.2mb 50f 47f
11:20pm  -   -   -  18 22 mph 1028.1mb 50f 47f
10:50pm 3.5ft 12s 6s 18 20 mph 1028mb 50f 48f
10:20pm  -   -   -  18 20 mph 1028.1mb 50f 48f
9:50pm 3.5ft 11s 7s 18 20 mph 1028.1mb 50f 48f
9:20pm  -   -   -  16 18 mph 1028.1mb 50f 48f
8:50pm 3.5ft 11s 6s 16 18 mph 1028.1mb 50f 48f
8:20pm  -   -   -  18 20 mph 1027.9mb 50f 48f
7:50pm 4ft 11s 6s 18 20 mph 1027.7mb 50f 48f
7:20pm  -   -   -  18 22 mph 1027.6mb 50f 48f
6:50pm 4.5ft 12s 6s 18 20 mph 1027.6mb 50f 49f
6:20pm  -   -   -  20 22 mph 1027.4mb 50f 49f
5:50pm 4.5ft 11s 6s 18 22 mph 1027.4mb 50f 49f
5:20pm  -   -   -  18 22 mph 1027.4mb 50f 49f
4:50pm 4.5ft 13s 5s 20 25 mph 1027.2mb 50f 49f
4:20pm  -   -   -  22 25 mph 1027.2mb 50f 49f
3:50pm 4.5ft 10s 6s 22 27 mph 1027.1mb 50f 49f
3:20pm  -   -   -  22 27 mph 1027.1mb 50f 48f
2:50pm 4.5ft 12s 6s 22 25 mph 1027.1mb 50f 48f
2:20pm  -   -   -  20 25 mph 1027.6mb 50f 48f
1:50pm 4.5ft 11s 7s 20 22 mph 1028mb 50f 47f
1:20pm  -   -   -  18 22 mph 1028.1mb 50f 47f
12:50pm 4.5ft 11s 7s 16 20 mph 1028.4mb 50f 48f
12:20pm  -   -   -  16 18 mph 1028.7mb 50f 47f
11:50am 5ft 11s 7s 13 16 mph 1028.9mb 50f 47f
11:20am  -   -   -  13 18 mph 1029mb 50f 46f
10:50am 5ft 12s 7s 13 18 mph 1028.9mb 50f 46f
10:20am  -   -   -  13 18 mph 1028.9mb 50f 46f
9:50am 4.5ft 12s 8s 13 16 mph 1028.6mb 49f 46f
9:20am  -   -   -  11 16 mph 1028.4mb 49f 45f
8:50am 5.5ft 12s 8s 11 16 mph 1028.2mb 49f 45f
8:20am  -   -   -  13 16 mph 1028mb 49f 45f
7:50am 4.5ft 11s 8s 13 16 mph 1027.8mb 49f 45f
7:20am  -   -   -  11 13 mph 1027.6mb 49f 45f
6:50am 5ft 12s 8s 9 13 mph 1027.6mb 49f 44f
6:20am  -   -   -  9 11 mph 1027.4mb 49f 45f
5:50am 5ft 11s 7s 9 11 mph 1027.1mb 49f 45f
5:20am  -   -   -  11 13 mph 1026.8mb 49f 45f
4:50am 5.5ft 13s 8s 11 16 mph 1026.6mb 49f 46f
4:20am  -   -   -  11 13 mph 1026.5mb 49f 47f
3:50am 5ft 13s 8s 7 11 mph 1026.7mb 49f 47f
3:20am  -   -   -  4 7 mph 1026.7mb 49f 48f
2:50am 5.5ft 13s 8s 2 4 mph 1026.8mb 49f 48f
2:20am  -   -   -  2 4 mph 1026.6mb 49f 48f
1:50am 5.5ft 14s 8s 2 4 mph 1026.2mb 49f 48f
1:20am  -   -   -  2 4 mph 1025.9mb 49f 48f
12:50am 6ft 10s 8s 4 9 mph 1025.7mb 49f 48f
12:20am  -   -   -  7 9 mph 1025.7mb 49f 48f
Tue 01/27 11:50pm 6.5ft 11s 8s 7 11 mph 1025.6mb 49f 48f
11:20pm  -   -   -  9 11 mph 1025.4mb 50f 48f
10:50pm 6.5ft 8s 7s 11 13 mph 1025.1mb 50f 48f
10:20pm  -   -   -  11 16 mph 1024.6mb 50f 48f
9:50pm 7ft 8s 7s 7 13 mph 1024.4mb 50f 48f
9:20pm  -   -   -  9 16 mph 1024mb 50f 48f
8:50pm 7ft 10s 7s 9 13 mph 1023.7mb 50f 48f